createdAt,value
2023-05-16T00:00:48.963Z,100838.44
2023-05-16T00:03:16.077Z,100826.16
2023-05-16T00:05:43.151Z,100836.75
2023-05-16T00:08:10.183Z,100825.16
2023-05-16T00:10:37.650Z,100828.38
2023-05-16T00:13:04.850Z,100820.44
2023-05-16T00:15:32.219Z,100818.91
2023-05-16T00:17:59.800Z,100823.44
2023-05-16T00:20:28.641Z,100817.91
2023-05-16T00:22:56.391Z,100820.63
2023-05-16T00:25:23.559Z,100815.81
2023-05-16T00:27:50.781Z,100818.69
2023-05-16T00:30:17.902Z,100824.63
2023-05-16T00:32:45.010Z,100817.84
2023-05-16T00:35:12.641Z,100814.88
2023-05-16T00:37:40.151Z,100812.47
2023-05-16T00:40:07.990Z,100808.91
2023-05-16T00:42:36.202Z,100806.78
2023-05-16T00:45:05.013Z,100800.75
2023-05-16T00:47:32.426Z,100809.59
2023-05-16T00:49:59.663Z,100805.03
2023-05-16T00:52:26.875Z,100809.16
2023-05-16T00:54:54.043Z,100798.25
2023-05-16T00:57:21.232Z,100797.38
2023-05-16T00:59:48.490Z,100789.13
2023-05-16T01:02:15.602Z,100790.28
2023-05-16T01:04:44.707Z,100789.31
2023-05-16T01:07:12.253Z,100788.91
2023-05-16T01:09:39.519Z,100788.34
2023-05-16T01:12:28.421Z,100782.13
2023-05-16T01:15:00.933Z,100778.19
2023-05-16T01:17:49.677Z,100775.66
2023-05-16T01:20:30.524Z,100770.34
2023-05-16T01:23:54.801Z,100768.16
2023-05-16T01:26:23.148Z,100769.78
2023-05-16T01:28:52.325Z,100765.09
2023-05-16T01:31:21.087Z,100758.84
2023-05-16T01:33:48.789Z,100759.88
2023-05-16T01:36:26.751Z,100754.63
2023-05-16T01:39:12.083Z,100751.09
2023-05-16T01:41:42.362Z,100753.91
2023-05-16T01:44:23.475Z,100748.84
2023-05-16T01:46:57.050Z,100747.41
2023-05-16T01:49:39.444Z,100749.38
2023-05-16T01:52:16.315Z,100741.75
2023-05-16T01:54:48.509Z,100751.16
2023-05-16T01:57:18.014Z,100753.44
2023-05-16T01:59:46.538Z,100746.34
2023-05-16T02:02:13.542Z,100751.50
2023-05-16T02:04:40.638Z,100754.34
2023-05-16T02:07:07.785Z,100761.19
2023-05-16T02:09:34.752Z,100767.47
2023-05-16T02:12:02.533Z,100775.09
2023-05-16T02:14:29.651Z,100773.38
2023-05-16T02:16:57.396Z,100783.63
2023-05-16T02:19:24.419Z,100788.72
2023-05-16T02:21:51.429Z,100788.41
2023-05-16T02:24:18.338Z,100794.66
2023-05-16T02:26:45.350Z,100779.34
2023-05-16T02:29:12.350Z,100783.34
2023-05-16T02:31:39.596Z,100775.09
2023-05-16T02:34:07.456Z,100776.78
2023-05-16T02:36:36.309Z,100762.63
2023-05-16T02:39:04.327Z,100764.31
2023-05-16T02:41:31.893Z,100765.31
2023-05-16T02:43:58.845Z,100760.38
2023-05-16T02:46:31.132Z,100757.00
2023-05-16T02:48:58.320Z,100762.94
2023-05-16T02:51:27.354Z,100760.22
2023-05-16T02:53:57.302Z,100758.53
2023-05-16T02:56:24.497Z,100755.16
2023-05-16T02:58:51.571Z,100748.06
2023-05-16T03:01:18.740Z,100748.06
2023-05-16T03:03:45.955Z,100744.22
2023-05-16T03:06:13.178Z,100738.69
2023-05-16T03:08:40.169Z,100737.84
2023-05-16T03:11:07.084Z,100743.94
2023-05-16T03:13:34.066Z,100742.25
2023-05-16T03:16:01.093Z,100741.38
2023-05-16T03:18:28.077Z,100744.94
2023-05-16T03:20:55.037Z,100730.38
2023-05-16T03:23:24.382Z,100733.22
2023-05-16T03:25:51.571Z,100741.72
2023-05-16T03:28:21.451Z,100727.41
2023-05-16T03:30:48.435Z,100734.31
2023-05-16T03:33:15.509Z,100739.16
2023-05-16T03:35:43.658Z,100740.00
2023-05-16T03:38:11.276Z,100736.31
2023-05-16T03:40:38.464Z,100728.94
2023-05-16T03:43:05.421Z,100738.00
2023-05-16T03:45:32.567Z,100734.06
2023-05-16T03:47:59.603Z,100736.47
2023-05-16T03:50:26.753Z,100733.22
2023-05-16T03:52:54.512Z,100733.50
2023-05-16T03:55:21.757Z,100738.31
2023-05-16T03:57:50.255Z,100747.38
2023-05-16T04:00:17.610Z,100733.22
2023-05-16T04:02:45.425Z,100735.22
2023-05-16T04:05:13.312Z,100736.19
2023-05-16T04:07:43.258Z,100730.53
2023-05-16T04:10:11.040Z,100731.53
2023-05-16T04:12:38.062Z,100729.81
2023-05-16T04:15:06.971Z,100728.69
2023-05-16T04:17:34.696Z,100732.25
2023-05-16T04:20:01.797Z,100724.91
2023-05-16T04:22:28.784Z,100733.09
2023-05-16T04:24:55.874Z,100733.09
2023-05-16T04:27:23.621Z,100725.03
2023-05-16T04:29:50.783Z,100734.25
2023-05-16T04:32:18.370Z,100730.72
2023-05-16T04:34:46.897Z,100729.03
2023-05-16T04:37:14.296Z,100727.59
2023-05-16T04:39:42.828Z,100730.59
2023-05-16T04:42:10.085Z,100736.97
2023-05-16T04:44:37.892Z,100729.28
2023-05-16T04:47:05.051Z,100734.41
2023-05-16T04:49:31.936Z,100732.97
2023-05-16T04:51:59.328Z,100729.88
2023-05-16T04:54:26.584Z,100737.50
2023-05-16T04:56:53.596Z,100734.69
2023-05-16T04:59:21.391Z,100735.66
2023-05-16T05:01:48.339Z,100739.34
2023-05-16T05:04:15.322Z,100744.59
2023-05-16T05:06:42.286Z,100736.09
2023-05-16T05:09:09.909Z,100735.78
2023-05-16T05:11:37.007Z,100738.78
2023-05-16T05:14:04.234Z,100736.41
2023-05-16T05:16:31.463Z,100736.09
2023-05-16T05:18:58.493Z,100736.66
2023-05-16T05:21:25.616Z,100742.59
2023-05-16T05:23:52.897Z,100742.88
2023-05-16T05:26:19.833Z,100747.28
2023-05-16T05:28:53.926Z,100751.66
2023-05-16T05:31:28.608Z,100745.97
2023-05-16T05:33:57.054Z,100748.75
2023-05-16T05:36:24.083Z,100754.31
2023-05-16T05:38:51.205Z,100753.88
2023-05-16T05:41:18.288Z,100753.81
2023-05-16T05:43:45.356Z,100764.72
2023-05-16T05:46:12.388Z,100761.75
2023-05-16T05:48:39.854Z,100757.50
2023-05-16T05:51:07.025Z,100765.13
2023-05-16T05:53:34.665Z,100761.44
2023-05-16T05:56:01.747Z,100769.19
2023-05-16T05:58:28.747Z,100757.44
2023-05-16T06:00:55.717Z,100758.22
2023-05-16T06:03:22.697Z,100757.00
2023-05-16T06:05:49.774Z,100763.56
2023-05-16T06:08:16.749Z,100766.72
2023-05-16T06:10:44.026Z,100765.28
2023-05-16T06:13:11.090Z,100773.88
2023-05-16T06:15:38.009Z,100770.06
2023-05-16T06:18:05.228Z,100770.16
2023-05-16T06:20:32.301Z,100760.50
2023-05-16T06:22:59.400Z,100752.97
2023-05-16T06:25:26.500Z,100754.94
2023-05-16T06:27:53.696Z,100743.19
2023-05-16T06:30:20.616Z,100753.03
2023-05-16T06:32:47.718Z,100751.22
2023-05-16T06:35:14.630Z,100755.47
2023-05-16T06:37:43.161Z,100744.69
2023-05-16T06:40:12.044Z,100746.00
2023-05-16T06:42:39.106Z,100758.22
2023-05-16T06:45:07.025Z,100755.72
2023-05-16T06:47:34.157Z,100757.22
2023-05-16T06:50:01.209Z,100762.28
2023-05-16T06:52:28.899Z,100765.00
2023-05-16T06:54:55.932Z,100764.34
2023-05-16T06:57:22.869Z,100770.75
2023-05-16T06:59:49.796Z,100771.09
2023-05-16T07:02:16.941Z,100769.44
2023-05-16T07:04:43.968Z,100771.47
2023-05-16T07:07:11.020Z,100765.09
2023-05-16T07:09:38.151Z,100773.53
2023-05-16T07:12:05.817Z,100769.00
2023-05-16T07:14:32.973Z,100771.53
2023-05-16T07:17:00.051Z,100776.81
2023-05-16T07:19:27.333Z,100776.91
2023-05-16T07:21:54.525Z,100778.09
2023-05-16T07:24:21.527Z,100784.88
2023-05-16T07:26:48.507Z,100794.72
2023-05-16T07:29:15.875Z,100797.06
2023-05-16T07:31:42.935Z,100791.81
2023-05-16T07:34:11.660Z,100790.13
2023-05-16T07:36:39.033Z,100792.31
2023-05-16T07:39:06.059Z,100792.00
2023-05-16T07:41:33.026Z,100792.84
2023-05-16T07:44:00.048Z,100794.69
2023-05-16T07:46:27.111Z,100797.72
2023-05-16T07:48:54.225Z,100789.81
2023-05-16T07:51:21.214Z,100786.38
2023-05-16T07:53:48.229Z,100788.50
2023-05-16T07:56:15.897Z,100786.06
2023-05-16T07:58:43.096Z,100779.44
2023-05-16T08:01:10.135Z,100781.47
2023-05-16T08:03:37.466Z,100782.94
2023-05-16T08:06:04.983Z,100781.00
2023-05-16T08:08:32.232Z,100783.47
2023-05-16T08:10:59.161Z,100785.31
2023-05-16T08:13:26.317Z,100793.97
2023-05-16T08:15:53.470Z,100794.16
2023-05-16T08:18:22.294Z,100788.31
2023-05-16T08:20:49.737Z,100787.44
2023-05-16T08:23:16.768Z,100785.59
2023-05-16T08:25:43.854Z,100790.09
2023-05-16T08:28:11.189Z,100778.59
2023-05-16T08:30:39.401Z,100778.50
2023-05-16T08:33:08.250Z,100780.03
2023-05-16T08:35:35.740Z,100776.09
2023-05-16T08:38:03.466Z,100775.66
2023-05-16T08:40:31.567Z,100780.94
2023-05-16T08:42:59.580Z,100777.88
2023-05-16T08:45:27.245Z,100783.69
2023-05-16T08:47:59.417Z,100780.75
2023-05-16T08:50:31.168Z,100781.13
2023-05-16T08:52:58.284Z,100782.31
2023-05-16T08:55:27.537Z,100780.75
2023-05-16T08:57:55.247Z,100777.44
2023-05-16T09:00:22.721Z,100783.44
2023-05-16T09:02:51.060Z,100778.13
2023-05-16T09:05:18.247Z,100779.13
2023-05-16T09:07:46.228Z,100780.13
2023-05-16T09:10:13.554Z,100778.00
2023-05-16T09:12:42.255Z,100774.59
2023-05-16T09:15:11.162Z,100774.13
2023-05-16T09:17:44.994Z,100774.94
2023-05-16T09:20:16.701Z,100780.78
2023-05-16T09:22:58.034Z,100773.66
2023-05-16T09:25:31.014Z,100775.31
2023-05-16T09:28:02.778Z,100771.56
2023-05-16T09:30:37.289Z,100774.94
2023-05-16T09:33:07.482Z,100775.25
2023-05-16T09:35:44.696Z,100783.00
2023-05-16T09:38:17.282Z,100780.44
2023-05-16T09:40:46.061Z,100784.63
2023-05-16T09:43:16.973Z,100777.84
2023-05-16T09:45:49.281Z,100781.38
2023-05-16T09:48:18.067Z,100787.25
2023-05-16T09:50:54.602Z,100781.94
2023-05-16T09:53:29.000Z,100779.53
2023-05-16T09:56:07.989Z,100780.16
2023-05-16T09:58:37.208Z,100775.56
2023-05-16T10:01:07.483Z,100781.09
2023-05-16T10:03:37.261Z,100787.13
2023-05-16T10:06:05.955Z,100780.53
2023-05-16T10:08:37.735Z,100786.81
2023-05-16T10:11:06.636Z,100777.69
2023-05-16T10:13:35.354Z,100779.00
2023-05-16T10:16:08.227Z,100788.84
2023-05-16T10:18:36.829Z,100781.78
2023-05-16T10:21:11.746Z,100787.06
2023-05-16T10:23:42.967Z,100800.19
2023-05-16T10:26:12.037Z,100792.91
2023-05-16T10:28:41.374Z,100792.63
2023-05-16T10:31:10.097Z,100792.00
2023-05-16T10:33:37.300Z,100792.84
2023-05-16T10:36:05.748Z,100799.09
2023-05-16T10:38:34.745Z,100783.66
2023-05-16T10:41:02.284Z,100803.50
2023-05-16T10:43:33.729Z,100790.97
2023-05-16T10:46:10.193Z,100780.31
2023-05-16T10:48:41.929Z,100803.50
2023-05-16T10:51:24.181Z,100786.41
2023-05-16T10:53:55.557Z,100791.31
2023-05-16T10:56:24.415Z,100792.66
2023-05-16T10:58:54.181Z,100785.91
2023-05-16T11:01:30.470Z,100792.97
2023-05-16T11:03:57.550Z,100791.81
2023-05-16T11:06:26.286Z,100785.53
2023-05-16T11:09:07.319Z,100788.94
2023-05-16T11:11:52.623Z,100778.06
2023-05-16T11:14:24.966Z,100783.84
2023-05-16T11:17:01.075Z,100780.81
2023-05-16T11:19:39.540Z,100777.09
2023-05-16T11:22:10.456Z,100779.09
2023-05-16T11:24:39.584Z,100772.53
2023-05-16T11:27:07.110Z,100771.31
2023-05-16T11:29:35.980Z,100775.06
2023-05-16T11:32:05.327Z,100781.81
2023-05-16T11:34:39.824Z,100784.56
2023-05-16T11:37:07.103Z,100765.59
2023-05-16T11:39:34.554Z,100767.97
2023-05-16T11:42:02.579Z,100766.28
2023-05-16T11:44:29.556Z,100759.00
2023-05-16T11:46:56.761Z,100766.94
2023-05-16T11:49:23.977Z,100766.75
2023-05-16T11:51:52.582Z,100765.19
2023-05-16T11:54:19.878Z,100750.78
2023-05-16T11:56:46.947Z,100750.75
2023-05-16T11:59:14.290Z,100750.38
2023-05-16T12:01:41.530Z,100757.91
2023-05-16T12:04:13.878Z,100744.25
2023-05-16T12:06:44.522Z,100733.91
2023-05-16T12:09:18.374Z,100748.41
2023-05-16T12:11:45.721Z,100752.75
2023-05-16T12:14:14.051Z,100752.22
2023-05-16T12:16:46.719Z,100748.16
2023-05-16T12:19:14.347Z,100746.44
2023-05-16T12:21:41.458Z,100746.81
2023-05-16T12:24:12.980Z,100741.38
2023-05-16T12:26:42.632Z,100740.50
2023-05-16T12:29:11.713Z,100734.94
2023-05-16T12:31:40.659Z,100738.94
2023-05-16T12:34:21.687Z,100736.03
2023-05-16T12:36:53.058Z,100731.25
2023-05-16T12:39:20.537Z,100718.78
2023-05-16T12:41:47.529Z,100712.75
2023-05-16T12:44:19.930Z,100719.16
2023-05-16T12:46:50.219Z,100730.63
2023-05-16T12:49:21.971Z,100730.94
2023-05-16T12:51:53.415Z,100720.09
2023-05-16T12:54:20.844Z,100725.53
2023-05-16T12:56:47.806Z,100722.91
2023-05-16T12:59:15.597Z,100718.50
2023-05-16T13:01:42.886Z,100726.94
2023-05-16T13:04:14.795Z,100720.22
2023-05-16T13:06:57.373Z,100726.63
2023-05-16T13:09:25.332Z,100729.41
2023-05-16T13:11:53.032Z,100724.84
2023-05-16T13:14:20.181Z,100736.19
2023-05-16T13:16:47.157Z,100735.31
2023-05-16T13:19:14.177Z,100722.31
2023-05-16T13:21:43.878Z,100728.03
2023-05-16T13:24:10.914Z,100738.19
2023-05-16T13:26:38.684Z,100734.13
2023-05-16T13:29:05.670Z,100737.88
2023-05-16T13:31:32.718Z,100737.88
2023-05-16T13:33:59.794Z,100735.53
2023-05-16T13:36:26.983Z,100729.09
2023-05-16T13:38:54.545Z,100732.81
2023-05-16T13:41:22.262Z,100734.81
2023-05-16T13:43:49.358Z,100730.25
2023-05-16T13:46:16.412Z,100737.03
2023-05-16T13:48:44.092Z,100737.19
2023-05-16T13:51:11.559Z,100738.91
2023-05-16T13:53:39.394Z,100743.09
2023-05-16T13:56:06.635Z,100739.56
2023-05-16T13:58:33.603Z,100739.41
2023-05-16T14:01:00.671Z,100736.69
2023-05-16T14:03:27.913Z,100727.03
2023-05-16T14:05:55.023Z,100739.31
2023-05-16T14:08:22.015Z,100732.44
2023-05-16T14:10:49.180Z,100722.69
2023-05-16T14:13:16.467Z,100721.31
2023-05-16T14:15:43.501Z,100723.16
2023-05-16T14:18:11.128Z,100721.34
2023-05-16T14:20:38.111Z,100720.31
2023-05-16T14:23:05.175Z,100728.06
2023-05-16T14:25:32.447Z,100735.47
2023-05-16T14:27:59.421Z,100727.72
2023-05-16T14:30:27.439Z,100725.34
2023-05-16T14:32:54.750Z,100723.97
2023-05-16T14:35:21.850Z,100716.34
2023-05-16T14:37:48.958Z,100711.13
2023-05-16T14:40:15.988Z,100686.78
2023-05-16T14:42:42.964Z,100693.72
2023-05-16T14:45:10.885Z,100677.81
2023-05-16T14:47:37.959Z,100675.66
2023-05-16T14:50:05.438Z,100665.13
2023-05-16T14:52:32.482Z,100664.16
2023-05-16T14:54:59.528Z,100660.78
2023-05-16T14:57:26.602Z,100670.25
2023-05-16T14:59:53.599Z,100670.59
2023-05-16T15:02:21.167Z,100681.75
2023-05-16T15:04:48.248Z,100694.28
2023-05-16T15:07:15.507Z,100696.31
2023-05-16T15:09:42.536Z,100702.22
2023-05-16T15:12:09.697Z,100709.50
2023-05-16T15:14:36.648Z,100715.91
2023-05-16T15:17:05.403Z,100715.06
2023-05-16T15:19:34.383Z,100710.50
2023-05-16T15:22:02.524Z,100713.22
2023-05-16T15:24:29.970Z,100711.16
2023-05-16T15:26:57.915Z,100716.41
2023-05-16T15:29:26.387Z,100716.91
2023-05-16T15:31:53.622Z,100730.59
2023-05-16T15:34:20.593Z,100721.31
2023-05-16T15:36:47.541Z,100725.03
2023-05-16T15:39:14.596Z,100736.53
2023-05-16T15:42:05.387Z,100738.56
2023-05-16T15:44:28.652Z,100738.88
2023-05-16T15:46:55.895Z,100748.00
2023-05-16T15:49:22.880Z,100739.22
2023-05-16T15:51:51.189Z,100736.19
2023-05-16T15:54:18.150Z,100740.56
2023-05-16T15:56:45.136Z,100739.41
2023-05-16T15:59:12.516Z,100725.03
2023-05-16T16:01:39.956Z,100741.94
2023-05-16T16:04:07.351Z,100724.69
2023-05-16T16:06:34.367Z,100725.53
2023-05-16T16:09:01.453Z,100730.44
2023-05-16T16:11:28.532Z,100714.72
2023-05-16T16:13:55.570Z,100709.81
2023-05-16T16:16:22.709Z,100729.09
2023-05-16T16:18:50.624Z,100720.78
2023-05-16T16:21:17.976Z,100725.69
2023-05-16T16:23:45.005Z,100736.28
2023-05-16T16:26:11.991Z,100736.50
2023-05-16T16:28:39.481Z,100727.03
2023-05-16T16:31:06.842Z,100725.88
2023-05-16T16:33:34.663Z,100738.88
2023-05-16T16:36:02.053Z,100744.88
2023-05-16T16:38:29.077Z,100746.22
2023-05-16T16:40:56.039Z,100750.28
2023-05-16T16:43:23.006Z,100745.53
2023-05-16T16:45:50.723Z,100765.44
2023-05-16T16:48:17.815Z,100746.31
2023-05-16T16:50:44.762Z,100748.84
2023-05-16T16:53:12.085Z,100750.91
2023-05-16T16:55:40.890Z,100753.25
2023-05-16T16:58:08.288Z,100752.22
2023-05-16T17:00:35.245Z,100781.78
2023-05-16T17:03:04.900Z,100767.38
2023-05-16T17:05:32.109Z,100770.44
2023-05-16T17:07:59.164Z,100777.84
2023-05-16T17:10:26.474Z,100777.13
2023-05-16T17:12:54.778Z,100765.47
2023-05-16T17:15:22.213Z,100769.75
2023-05-16T17:17:49.545Z,100764.66
2023-05-16T17:20:16.659Z,100771.78
2023-05-16T17:22:43.707Z,100770.59
2023-05-16T17:25:11.001Z,100771.47
2023-05-16T17:27:38.008Z,100775.88
2023-05-16T17:30:06.129Z,100773.53
2023-05-16T17:32:33.391Z,100774.25
2023-05-16T17:35:03.886Z,100782.34
2023-05-16T17:37:31.062Z,100772.38
2023-05-16T17:39:58.704Z,100786.84
2023-05-16T17:42:25.825Z,100777.09
2023-05-16T17:44:53.040Z,100780.28
2023-05-16T17:47:19.993Z,100776.56
2023-05-16T17:49:47.430Z,100789.38
2023-05-16T17:52:15.239Z,100787.69
2023-05-16T17:54:42.301Z,100799.47
2023-05-16T17:57:09.355Z,100795.44
2023-05-16T17:59:36.288Z,100800.69
2023-05-16T18:02:04.206Z,100797.50
2023-05-16T18:04:31.260Z,100816.41
2023-05-16T18:06:58.368Z,100823.16
2023-05-16T18:09:25.620Z,100816.13
2023-05-16T18:11:52.876Z,100811.06
2023-05-16T18:14:19.882Z,100822.91
2023-05-16T18:16:47.305Z,100819.84
2023-05-16T18:19:14.712Z,100819.84
2023-05-16T18:21:44.407Z,100818.47
2023-05-16T18:24:13.450Z,100824.88
2023-05-16T18:26:40.801Z,100831.69
2023-05-16T18:29:10.725Z,100838.09
2023-05-16T18:31:41.356Z,100840.72
2023-05-16T18:34:09.684Z,100843.13
2023-05-16T18:36:36.621Z,100847.84
2023-05-16T18:39:04.097Z,100852.59
2023-05-16T18:41:31.172Z,100853.28
2023-05-16T18:43:58.224Z,100864.09
2023-05-16T18:46:25.236Z,100866.47
2023-05-16T18:48:52.693Z,100865.28
2023-05-16T18:51:19.771Z,100870.19
2023-05-16T18:53:46.726Z,100870.88
2023-05-16T18:56:13.755Z,100883.66
2023-05-16T18:58:40.818Z,100880.59
2023-05-16T19:01:08.452Z,100880.09
2023-05-16T19:03:35.557Z,100884.31
2023-05-16T19:06:02.736Z,100889.72
2023-05-16T19:08:37.027Z,100896.78
2023-05-16T19:11:13.843Z,100889.69
2023-05-16T19:13:41.192Z,100886.28
2023-05-16T19:16:08.378Z,100895.94
2023-05-16T19:18:35.983Z,100895.72
2023-05-16T19:21:03.710Z,100898.75
2023-05-16T19:23:30.758Z,100905.16
2023-05-16T19:25:58.259Z,100908.22
2023-05-16T19:28:25.348Z,100909.56
2023-05-16T19:30:52.336Z,100915.34
2023-05-16T19:33:19.330Z,100926.28
2023-05-16T19:35:46.420Z,100927.19
2023-05-16T19:38:13.581Z,100933.13
2023-05-16T19:40:40.544Z,100938.31
2023-05-16T19:43:07.549Z,100933.25
2023-05-16T19:45:35.017Z,100944.56
2023-05-16T19:48:02.233Z,100943.72
2023-05-16T19:50:29.408Z,100941.38
2023-05-16T19:52:56.423Z,100944.31
2023-05-16T19:55:25.537Z,100944.13
2023-05-16T19:57:52.819Z,100946.16
2023-05-16T20:00:20.251Z,100956.63
2023-05-16T20:02:48.081Z,100958.66
2023-05-16T20:05:19.951Z,100961.72
2023-05-16T20:07:47.205Z,100972.22
2023-05-16T20:10:14.230Z,100973.59
2023-05-16T20:12:41.354Z,100968.19
2023-05-16T20:15:10.927Z,100975.00
2023-05-16T20:17:39.382Z,100981.25
2023-05-16T20:20:08.323Z,100988.34
2023-05-16T20:22:39.602Z,100990.91
2023-05-16T20:25:07.461Z,100990.31
2023-05-16T20:27:34.518Z,100998.75
2023-05-16T20:30:02.924Z,100998.63
2023-05-16T20:32:30.077Z,101006.03
2023-05-16T20:34:57.358Z,100990.22
2023-05-16T20:37:26.908Z,101001.38
2023-05-16T20:40:01.534Z,101003.09
2023-05-16T20:42:29.059Z,101001.38
2023-05-16T20:44:58.658Z,101004.75
2023-05-16T20:47:26.136Z,101006.31
2023-05-16T20:49:53.148Z,101008.16
2023-05-16T20:52:21.881Z,101016.28
2023-05-16T20:54:49.103Z,101022.69
2023-05-16T20:57:16.415Z,101024.38
2023-05-16T20:59:43.492Z,101033.50
2023-05-16T21:02:10.461Z,101037.75
2023-05-16T21:04:38.283Z,101037.91
2023-05-16T21:07:08.189Z,101041.59
2023-05-16T21:09:37.184Z,101036.38
2023-05-16T21:12:04.913Z,101044.63
2023-05-16T21:14:32.066Z,101051.75
2023-05-16T21:16:59.029Z,101062.00
2023-05-16T21:19:28.342Z,101067.25
2023-05-16T21:21:55.410Z,101060.31
2023-05-16T21:24:22.417Z,101064.88
2023-05-16T21:26:49.434Z,101065.72
2023-05-16T21:29:16.388Z,101064.88
2023-05-16T21:31:43.398Z,101065.72
2023-05-16T21:34:10.533Z,101070.56
2023-05-16T21:36:37.614Z,101069.69
2023-05-16T21:39:04.708Z,101068.88
2023-05-16T21:41:31.704Z,101073.59
2023-05-16T21:43:58.758Z,101075.44
2023-05-16T21:46:26.442Z,101077.47
2023-05-16T21:48:53.515Z,101074.91
2023-05-16T21:51:20.674Z,101079.94
2023-05-16T21:53:47.906Z,101084.63
2023-05-16T21:56:14.997Z,101083.25
2023-05-16T21:58:42.633Z,101092.34
2023-05-16T22:01:09.916Z,101088.13
2023-05-16T22:03:37.146Z,101083.88
2023-05-16T22:06:04.477Z,101084.53
2023-05-16T22:08:31.536Z,101081.97
2023-05-16T22:10:58.689Z,101077.75
2023-05-16T22:13:25.963Z,101077.75
2023-05-16T22:16:04.087Z,101086.00
2023-05-16T22:18:33.135Z,101083.44
2023-05-16T22:21:01.207Z,101092.53
2023-05-16T22:23:28.397Z,101091.16
2023-05-16T22:25:55.651Z,101099.72
2023-05-16T22:28:22.747Z,101098.88
2023-05-16T22:30:56.115Z,101092.06
2023-05-16T22:33:26.317Z,101098.78
2023-05-16T22:35:54.049Z,101098.09
2023-05-16T22:38:21.504Z,101103.19
2023-05-16T22:40:48.679Z,101099.66
2023-05-16T22:43:15.911Z,101099.41
2023-05-16T22:45:43.012Z,101099.00
2023-05-16T22:48:12.028Z,101104.41
2023-05-16T22:50:39.245Z,101106.44
2023-05-16T22:53:12.719Z,101102.88
2023-05-16T22:55:39.839Z,101104.72
2023-05-16T22:58:07.109Z,101104.41
2023-05-16T23:00:38.080Z,101094.25
2023-05-16T23:03:05.409Z,101096.22
2023-05-16T23:05:32.935Z,101097.84
2023-05-16T23:08:03.356Z,101095.44
2023-05-16T23:13:16.423Z,101098.03
2023-05-16T23:16:03.690Z,101108.13
2023-05-16T23:18:30.856Z,101100.63
2023-05-16T23:20:58.086Z,101102.31
2023-05-16T23:23:25.098Z,101098.09
2023-05-16T23:25:52.951Z,101100.94
2023-05-16T23:28:20.556Z,101106.00
2023-05-16T23:30:48.299Z,101101.63
2023-05-16T23:33:15.499Z,101101.25
2023-05-16T23:35:42.802Z,101097.69
2023-05-16T23:38:09.963Z,101105.78
2023-05-16T23:40:37.133Z,101099.53
2023-05-16T23:43:04.292Z,101099.84
2023-05-16T23:54:49.588Z,101110.09
2023-05-16T23:57:16.632Z,101119.81
2023-05-16T23:59:43.523Z,101116.81
